Terminal Aerodrome Forecast
Issued by NWS Northern Indiana

Home | Current Version | Previous Version | Text Only | Print | Product List | Glossary On
Versions: 1 2 3 4 5 6 7 8 9 10 11 12 13 14 15 16
000
FTUS43 KIWX 050500
TAFFWA
TAF
KFWA 050523Z 0506/0606 33008KT P6SM BKN150
     FM050900 35006KT P6SM BKN040
     FM051600 29010KT P6SM BKN040
     FM060100 27006KT P6SM SCT040=

USA.gov is the U.S. government's official web portal to all federal, state and local government web resources and services.